Cleveland, GA (30528)

7:32 PM EDT on May 28, 2015 (GMT -0400)
White Creek | | Change Station
CLOSE
Current Station
Personal Weather Station
Location: Cleveland, GA
Elevation: 1414 ft
Nearby Weather Stations

Elev 1414 ft 34.57 °N, 83.69 °W | Updated 1 day ago

Rain
Rain
68 °F
Feels Like 68 °F
N
1
Wind Variable Wind from SE
Gusts mph

Today
High -- | Low -- °F
--% Chance of Precip.
Yesterday
High -- | Low -- °F
Precip. -- in
6:24 AM 8:40 PM
Waxing Gibbous, 79% visible
Pressure 30.24 in
Visibility 7.0 miles
Clouds
Dew Point 66 °F
Humidity 94%
Rainfall in
Snow Depth Not available.
UV Not available.
Pollen 4.80 out of 12
Air Quality Not available.
Flu Activity Sporadic
METAR KDZJ 282315Z AUTO 00000KT 7SM -RA 20/15 A3024 RMK AO2 T01970149

More Conditions Fewer Conditions

Pressure 30.24 in
Visibility 7.0 miles
Clouds
Dew Point 66 °F
Humidity 94%
Rainfall in
Snow Depth Not available.
UV Not available.
Pollen 4.80 out of 12
Air Quality Not available.
Flu Activity Sporadic
METAR KDZJ 282315Z AUTO 00000KT 7SM -RA 20/15 A3024 RMK AO2 T01970149

More Conditions Fewer Conditions

10-Day Weather Forecast

Almanac

Astronomy

May. 28, 2015 Rise Set
Actual Time
Civil Twilight
Nautical Twilight
Astronomical Twilight
Moon
Length of Visible Light
Length of Day
Tomorrow will be .
, % of the Moon is Illuminated

Today's Extremes

State Highs State Lows

Community

WunderPhotos

Upload Photos

1,825,093 photos uploaded!

WunderBlogs® & News

Nearby

Air Quality

  Air Quality AQ Index Pollutant
Not available.

Snow Depth

Station Depth Elevation

Earthquake Activity

City Distance Mag. Time & Date
Minimum magnitude displayed is 2.5.

Coastal Water Temperatures

Place Temperature

Stations

Nearby Weather Stations

Station Location Temp. Windchill Dew Point Humidity Wind Precip. Elev Updated Type